createdAt,value
2023-01-06T00:01:11.697Z,35.27
2023-01-06T00:03:38.971Z,32.30
2023-01-06T00:06:07.999Z,30.00
2023-01-06T00:08:35.942Z,28.73
2023-01-06T00:11:10.740Z,27.93
2023-01-06T00:13:38.192Z,29.87
2023-01-06T00:16:15.043Z,28.33
2023-01-06T00:18:42.569Z,27.77
2023-01-06T00:21:10.421Z,28.10
2023-01-06T00:23:37.753Z,28.33
2023-01-06T00:26:06.117Z,28.57
2023-01-06T00:28:34.707Z,29.00
2023-01-06T00:31:08.483Z,28.93
2023-01-06T00:33:36.012Z,24.23
2023-01-06T00:36:03.704Z,25.77
2023-01-06T00:38:31.147Z,27.67
2023-01-06T00:40:58.398Z,26.97
2023-01-06T00:43:27.740Z,28.27
2023-01-06T00:45:54.692Z,28.53
2023-01-06T00:48:21.675Z,28.60
2023-01-06T00:50:48.628Z,28.63
2023-01-06T00:53:16.961Z,27.70
2023-01-06T00:55:44.000Z,27.00
2023-01-06T00:58:10.984Z,26.27
2023-01-06T01:00:39.222Z,25.93
2023-01-06T01:03:06.260Z,27.27
2023-01-06T01:05:33.301Z,26.30
2023-01-06T01:08:00.268Z,27.07
2023-01-06T01:10:27.285Z,25.47
2023-01-06T01:12:54.296Z,26.23
2023-01-06T01:15:22.491Z,28.90
2023-01-06T01:17:49.449Z,24.97
2023-01-06T01:20:16.518Z,24.13
2023-01-06T01:22:43.613Z,23.73
2023-01-06T01:25:10.630Z,22.90
2023-01-06T01:27:37.911Z,22.87
2023-01-06T01:30:05.609Z,21.17
2023-01-06T01:32:32.591Z,22.37
2023-01-06T01:34:59.619Z,22.93
2023-01-06T01:37:26.676Z,22.03
2023-01-06T01:39:53.668Z,22.77
2023-01-06T01:42:21.564Z,23.50
2023-01-06T01:45:03.698Z,23.93
2023-01-06T01:47:39.158Z,23.20
2023-01-06T01:50:27.284Z,23.03
2023-01-06T01:52:58.668Z,20.87
2023-01-06T01:55:28.680Z,21.97
2023-01-06T01:58:04.251Z,23.70
2023-01-06T02:00:31.266Z,22.17
2023-01-06T02:02:59.119Z,21.07
2023-01-06T02:05:48.048Z,22.93
2023-01-06T02:08:26.520Z,21.97
2023-01-06T02:10:53.678Z,23.47
2023-01-06T02:13:20.767Z,22.87
2023-01-06T02:15:49.431Z,23.57
2023-01-06T02:18:37.833Z,22.80
2023-01-06T02:21:17.307Z,25.17
2023-01-06T02:24:18.386Z,23.80
2023-01-06T02:27:11.607Z,21.27
2023-01-06T02:30:01.214Z,21.20
2023-01-06T02:32:59.999Z,20.00
2023-01-06T02:35:48.661Z,21.03
2023-01-06T02:38:21.901Z,21.30
2023-01-06T02:41:08.805Z,21.77
2023-01-06T02:44:10.606Z,21.53
2023-01-06T02:47:02.778Z,21.27
2023-01-06T02:49:42.104Z,20.73
2023-01-06T02:52:19.454Z,22.83
2023-01-06T02:54:54.052Z,21.47
2023-01-06T02:57:23.501Z,20.33
2023-01-06T03:00:01.517Z,22.77
2023-01-06T03:02:32.201Z,22.67
2023-01-06T03:05:02.821Z,21.83
2023-01-06T03:07:32.878Z,21.37
2023-01-06T03:10:03.712Z,23.07
2023-01-06T03:13:08.996Z,22.93
2023-01-06T03:15:36.483Z,23.03
2023-01-06T03:18:03.737Z,23.23
2023-01-06T03:20:30.793Z,23.80
2023-01-06T03:22:57.923Z,22.40
2023-01-06T03:25:26.334Z,23.47
2023-01-06T03:27:53.771Z,24.17
2023-01-06T03:30:26.022Z,23.17
2023-01-06T03:33:11.560Z,22.83
2023-01-06T03:36:03.108Z,22.80
2023-01-06T03:38:46.687Z,24.43
2023-01-06T03:41:47.161Z,23.73
2023-01-06T03:44:25.234Z,24.13
2023-01-06T03:47:00.101Z,22.70
2023-01-06T03:49:35.126Z,25.40
2023-01-06T03:52:21.152Z,24.63
2023-01-06T03:54:51.376Z,23.73
2023-01-06T03:57:29.326Z,24.70
2023-01-06T04:00:06.983Z,24.47
2023-01-06T04:02:41.543Z,24.77
2023-01-06T04:05:16.812Z,26.63
2023-01-06T04:07:46.085Z,23.23
2023-01-06T04:10:16.341Z,24.13
2023-01-06T04:12:43.645Z,23.83
2023-01-06T04:15:21.649Z,23.23
2023-01-06T04:17:50.195Z,24.33
2023-01-06T04:20:23.315Z,25.47
2023-01-06T04:22:57.727Z,24.30
2023-01-06T04:25:26.587Z,24.83
2023-01-06T04:27:54.279Z,27.50
2023-01-06T04:30:21.922Z,25.57
2023-01-06T04:32:49.032Z,26.53
2023-01-06T04:35:16.194Z,26.33
2023-01-06T04:37:44.646Z,27.27
2023-01-06T04:40:11.836Z,27.53
2023-01-06T04:42:57.389Z,27.43
2023-01-06T04:45:24.458Z,25.00
2023-01-06T04:47:51.470Z,29.33
2023-01-06T04:50:18.503Z,29.27
2023-01-06T04:52:45.497Z,27.60
2023-01-06T04:55:12.855Z,28.63
2023-01-06T04:57:39.853Z,28.00
2023-01-06T05:00:07.516Z,28.07
2023-01-06T05:02:34.515Z,27.67
2023-01-06T05:05:01.572Z,27.10
2023-01-06T05:07:28.504Z,28.43
2023-01-06T05:09:55.468Z,27.73
2023-01-06T05:12:22.566Z,30.03
2023-01-06T05:14:49.719Z,28.47
2023-01-06T05:17:16.846Z,31.03
2023-01-06T05:19:44.516Z,28.20
2023-01-06T05:22:11.924Z,30.40
2023-01-06T05:24:39.157Z,29.53
2023-01-06T05:27:06.703Z,27.23
2023-01-06T05:29:34.187Z,27.47
2023-01-06T05:32:01.258Z,29.70
2023-01-06T05:34:28.603Z,27.43
2023-01-06T05:36:56.953Z,28.13
2023-01-06T05:39:24.569Z,28.07
2023-01-06T05:41:51.595Z,28.53
2023-01-06T05:44:20.726Z,28.47
2023-01-06T05:46:47.867Z,27.63
2023-01-06T05:49:14.881Z,26.23
2023-01-06T05:51:41.917Z,29.47
2023-01-06T05:54:09.811Z,29.50
2023-01-06T05:56:37.224Z,28.40
2023-01-06T05:59:04.438Z,29.53
2023-01-06T06:01:32.638Z,28.40
2023-01-06T06:04:00.177Z,27.47
2023-01-06T06:06:28.870Z,27.60
2023-01-06T06:08:55.875Z,27.87
2023-01-06T06:11:23.088Z,27.10
2023-01-06T06:13:52.649Z,28.73
2023-01-06T06:16:22.522Z,29.20
2023-01-06T06:18:52.155Z,29.43
2023-01-06T06:21:24.563Z,28.70
2023-01-06T06:23:53.867Z,28.17
2023-01-06T06:26:20.992Z,27.17
2023-01-06T06:28:48.049Z,28.30
2023-01-06T06:31:23.392Z,29.73
2023-01-06T06:33:55.681Z,28.80
2023-01-06T06:36:23.367Z,27.47
2023-01-06T06:38:53.289Z,26.97
2023-01-06T06:41:21.346Z,27.80
2023-01-06T06:43:49.727Z,27.90
2023-01-06T06:46:17.534Z,27.67
2023-01-06T06:48:44.935Z,27.70
2023-01-06T06:51:14.869Z,28.90
2023-01-06T06:53:41.882Z,29.37
2023-01-06T06:56:10.101Z,26.40
2023-01-06T06:58:38.042Z,25.97
2023-01-06T07:01:10.607Z,26.80
2023-01-06T07:03:38.201Z,27.93
2023-01-06T07:06:07.391Z,27.53
2023-01-06T07:08:34.594Z,26.90
2023-01-06T07:11:02.486Z,27.47
2023-01-06T07:13:29.766Z,26.33
2023-01-06T07:15:56.781Z,27.47
2023-01-06T07:18:23.749Z,26.43
2023-01-06T07:20:53.667Z,27.37
2023-01-06T07:23:21.783Z,26.37
2023-01-06T07:25:53.449Z,27.97
2023-01-06T07:28:20.765Z,28.67
2023-01-06T07:30:48.035Z,26.00
2023-01-06T07:33:15.094Z,27.53
2023-01-06T07:35:42.095Z,26.60
2023-01-06T07:38:09.365Z,28.50
2023-01-06T07:40:36.757Z,28.47
2023-01-06T07:43:05.475Z,29.20
2023-01-06T07:45:32.844Z,31.57
2023-01-06T07:47:59.958Z,30.93
2023-01-06T07:50:28.039Z,33.17
2023-01-06T07:52:58.117Z,30.93
2023-01-06T07:55:25.564Z,32.83
2023-01-06T07:57:53.398Z,28.97
2023-01-06T08:00:21.056Z,33.63
2023-01-06T08:02:48.353Z,33.10
2023-01-06T08:05:15.804Z,31.80
2023-01-06T08:07:42.933Z,31.37
2023-01-06T08:10:10.146Z,31.77
2023-01-06T08:12:37.224Z,31.77
2023-01-06T08:15:05.580Z,30.60
2023-01-06T08:17:32.668Z,30.60
2023-01-06T08:19:59.609Z,30.57
2023-01-06T08:22:26.813Z,30.80
2023-01-06T08:24:53.988Z,32.43
2023-01-06T08:27:21.030Z,30.17
2023-01-06T08:29:50.222Z,30.63
2023-01-06T08:32:17.453Z,29.83
2023-01-06T08:34:44.563Z,32.90
2023-01-06T08:37:11.629Z,29.53
2023-01-06T08:39:38.703Z,30.03
2023-01-06T08:42:05.920Z,30.87
2023-01-06T08:44:32.991Z,31.20
2023-01-06T08:47:00.287Z,30.17
2023-01-06T08:49:27.305Z,32.90
2023-01-06T08:51:54.316Z,33.33
2023-01-06T08:54:21.459Z,30.33
2023-01-06T08:56:48.625Z,33.30
2023-01-06T08:59:17.487Z,35.70
2023-01-06T09:01:45.162Z,31.77
2023-01-06T09:04:13.051Z,36.17
2023-01-06T09:06:43.121Z,33.70
2023-01-06T09:09:13.888Z,35.13
2023-01-06T09:11:45.397Z,34.83
2023-01-06T09:14:14.171Z,35.07
2023-01-06T09:16:41.484Z,36.40
2023-01-06T09:19:10.412Z,36.37
2023-01-06T09:21:37.798Z,36.43
2023-01-06T09:24:05.071Z,35.53
2023-01-06T09:26:32.063Z,35.90
2023-01-06T09:28:59.017Z,35.30
2023-01-06T09:31:26.892Z,36.23
2023-01-06T09:33:54.492Z,36.43
2023-01-06T09:36:22.233Z,35.27
2023-01-06T09:38:49.330Z,36.03
2023-01-06T09:41:34.847Z,35.57
2023-01-06T09:44:19.230Z,31.77
2023-01-06T09:46:49.603Z,34.93
2023-01-06T09:49:40.695Z,33.27
2023-01-06T09:52:29.262Z,33.03
2023-01-06T09:55:27.158Z,33.97
2023-01-06T09:58:03.633Z,34.13
2023-01-06T10:00:48.675Z,34.07
2023-01-06T10:03:19.019Z,35.83
2023-01-06T10:05:54.407Z,36.10
2023-01-06T10:08:46.507Z,34.70
2023-01-06T10:11:27.406Z,38.57
2023-01-06T10:14:00.278Z,35.40
2023-01-06T10:16:45.913Z,33.07
2023-01-06T10:19:12.883Z,34.83
2023-01-06T10:22:08.330Z,35.63
2023-01-06T10:24:48.686Z,33.53
2023-01-06T10:27:25.842Z,32.03
2023-01-06T10:29:56.182Z,33.20
2023-01-06T10:32:28.281Z,36.73
2023-01-06T10:34:56.325Z,33.27
2023-01-06T10:37:33.220Z,34.53
2023-01-06T10:40:13.391Z,34.60
2023-01-06T10:42:56.518Z,33.17
2023-01-06T10:45:32.119Z,32.30
2023-01-06T10:48:00.774Z,33.93
2023-01-06T10:50:28.077Z,32.80
2023-01-06T10:52:55.378Z,33.00
2023-01-06T10:55:25.394Z,33.13
2023-01-06T10:57:54.858Z,34.43
2023-01-06T11:00:25.905Z,32.90
2023-01-06T11:03:09.057Z,32.37
2023-01-06T11:05:41.082Z,34.57
2023-01-06T11:08:12.733Z,33.37
2023-01-06T11:10:42.843Z,32.80
2023-01-06T11:13:24.828Z,34.77
2023-01-06T11:15:52.323Z,35.60
2023-01-06T11:18:40.115Z,34.03
2023-01-06T11:21:11.585Z,36.50
2023-01-06T11:23:41.482Z,36.63
2023-01-06T11:26:20.934Z,35.50
2023-01-06T11:28:53.243Z,37.13
2023-01-06T11:31:25.859Z,36.13
2023-01-06T11:33:57.894Z,35.83
2023-01-06T11:36:28.925Z,35.37
2023-01-06T11:38:59.691Z,35.77
2023-01-06T11:41:38.665Z,35.97
2023-01-06T11:44:16.730Z,35.00
2023-01-06T11:46:51.297Z,36.83
2023-01-06T11:49:40.262Z,34.97
2023-01-06T11:52:27.175Z,34.87
2023-01-06T11:54:59.179Z,34.00
2023-01-06T11:58:07.231Z,35.43
2023-01-06T12:00:47.895Z,34.00
2023-01-06T12:03:36.399Z,34.80
2023-01-06T12:06:07.067Z,32.83
2023-01-06T12:08:37.090Z,35.03
2023-01-06T12:11:33.685Z,34.70
2023-01-06T12:14:16.286Z,34.17
2023-01-06T12:17:08.749Z,33.57
2023-01-06T12:19:38.727Z,34.83
2023-01-06T12:22:10.832Z,35.17
2023-01-06T12:24:39.120Z,35.00
2023-01-06T12:27:07.215Z,35.23
2023-01-06T12:29:35.047Z,34.93
2023-01-06T12:32:10.252Z,34.63
2023-01-06T12:34:42.029Z,33.57
2023-01-06T12:37:26.428Z,32.20
2023-01-06T12:39:59.884Z,33.23
2023-01-06T12:43:07.491Z,33.40
2023-01-06T12:45:35.228Z,31.40
2023-01-06T12:48:12.114Z,32.00
2023-01-06T12:50:49.644Z,31.63
2023-01-06T12:53:29.180Z,32.40
2023-01-06T12:56:16.442Z,29.77
2023-01-06T12:59:03.682Z,30.47
2023-01-06T13:02:11.504Z,31.07
2023-01-06T13:04:44.571Z,29.57
2023-01-06T13:07:20.795Z,29.30
2023-01-06T13:09:56.777Z,32.30
2023-01-06T13:12:42.253Z,28.60
2023-01-06T13:15:29.178Z,29.07
2023-01-06T13:18:25.625Z,28.30
2023-01-06T13:21:03.259Z,28.73
2023-01-06T13:23:45.102Z,26.23
2023-01-06T13:26:23.918Z,22.47
2023-01-06T13:28:51.496Z,24.27
2023-01-06T13:31:56.057Z,23.87
2023-01-06T13:34:51.743Z,23.30
2023-01-06T13:37:33.180Z,20.00
2023-01-06T13:40:14.639Z,20.53
2023-01-06T13:42:54.034Z,21.90
2023-01-06T13:45:27.027Z,21.90
2023-01-06T13:47:55.231Z,22.33
2023-01-06T13:50:23.435Z,20.77
2023-01-06T13:52:51.474Z,22.13
2023-01-06T13:55:30.701Z,20.43
2023-01-06T13:58:18.077Z,22.20
2023-01-06T14:00:45.148Z,22.03
2023-01-06T14:03:24.074Z,22.63
2023-01-06T14:05:53.143Z,23.10
2023-01-06T14:08:22.176Z,22.37
2023-01-06T14:10:58.561Z,23.20
2023-01-06T14:13:39.982Z,23.93
2023-01-06T14:16:12.663Z,35.80
2023-01-06T14:18:51.258Z,24.63
2023-01-06T14:21:23.926Z,25.40
2023-01-06T14:24:06.955Z,23.63
2023-01-06T14:26:59.217Z,53.10
2023-01-06T14:29:44.356Z,22.03
2023-01-06T14:32:36.988Z,21.97
2023-01-06T14:35:11.343Z,22.07
2023-01-06T14:37:55.333Z,23.93
2023-01-06T14:40:29.117Z,24.00
2023-01-06T14:42:59.453Z,22.77
2023-01-06T14:45:36.706Z,22.27
2023-01-06T14:48:14.877Z,22.57
2023-01-06T14:50:47.608Z,22.63
2023-01-06T14:53:27.723Z,24.27
2023-01-06T14:55:55.654Z,24.87
2023-01-06T14:58:32.905Z,24.63
2023-01-06T15:01:00.524Z,25.07
2023-01-06T15:03:29.016Z,25.90
2023-01-06T15:06:18.084Z,25.40
2023-01-06T15:08:45.221Z,26.00
2023-01-06T15:11:35.562Z,27.43
2023-01-06T15:14:02.555Z,25.60
2023-01-06T15:16:42.096Z,26.37
2023-01-06T15:19:16.448Z,28.07
2023-01-06T15:21:46.256Z,26.87
2023-01-06T15:24:35.592Z,26.13
2023-01-06T15:27:08.234Z,25.03
2023-01-06T15:29:35.612Z,25.47
2023-01-06T15:32:04.547Z,25.47
2023-01-06T15:34:42.691Z,26.80
2023-01-06T15:37:18.648Z,24.40
2023-01-06T15:39:46.326Z,22.43
2023-01-06T15:42:21.666Z,24.63
2023-01-06T15:44:59.645Z,25.70
2023-01-06T15:47:39.698Z,25.53
2023-01-06T15:50:09.513Z,24.27
2023-01-06T15:52:40.293Z,25.47
2023-01-06T15:55:19.453Z,25.67
2023-01-06T15:57:56.766Z,27.20
2023-01-06T16:00:27.511Z,26.23
2023-01-06T16:02:54.851Z,26.50
2023-01-06T16:05:42.601Z,28.30
2023-01-06T16:08:18.759Z,26.83
2023-01-06T16:10:46.306Z,27.97
2023-01-06T16:13:15.960Z,27.20
2023-01-06T16:16:31.239Z,27.07
2023-01-06T16:18:58.476Z,26.87
2023-01-06T16:21:32.067Z,27.30
2023-01-06T16:24:02.472Z,29.67
2023-01-06T16:26:32.798Z,29.80
2023-01-06T16:29:02.795Z,28.00
2023-01-06T16:31:41.718Z,28.80
2023-01-06T16:34:38.148Z,29.23
2023-01-06T16:37:05.155Z,29.03
2023-01-06T16:39:32.070Z,30.57
2023-01-06T16:41:59.036Z,30.87
2023-01-06T16:44:26.888Z,29.63
2023-01-06T16:46:53.959Z,28.57
2023-01-06T16:49:22.534Z,29.67
2023-01-06T16:51:50.415Z,29.63
2023-01-06T16:54:18.760Z,28.10
2023-01-06T16:56:47.104Z,29.97
2023-01-06T16:59:17.183Z,29.87
2023-01-06T17:01:46.024Z,29.43
2023-01-06T17:04:14.324Z,29.47
2023-01-06T17:06:43.285Z,28.03
2023-01-06T17:09:20.563Z,29.43
2023-01-06T17:11:54.260Z,30.13
2023-01-06T17:14:23.046Z,27.90
2023-01-06T17:16:50.776Z,28.10
2023-01-06T17:19:29.906Z,28.33
2023-01-06T17:22:07.887Z,25.70
2023-01-06T17:24:35.573Z,27.90
2023-01-06T17:27:27.901Z,26.00
2023-01-06T17:29:58.665Z,25.93
2023-01-06T17:32:37.817Z,25.87
2023-01-06T17:35:30.009Z,28.50
2023-01-06T17:38:00.594Z,27.27
2023-01-06T17:40:38.665Z,27.47
2023-01-06T17:43:30.688Z,26.23
2023-01-06T17:45:58.382Z,27.17
2023-01-06T17:48:26.756Z,25.87
2023-01-06T17:50:55.747Z,25.80
2023-01-06T17:53:55.295Z,26.93
2023-01-06T17:56:23.829Z,26.50
2023-01-06T17:58:50.911Z,26.53
2023-01-06T18:01:30.314Z,25.93
2023-01-06T18:03:59.859Z,27.73
2023-01-06T18:06:30.497Z,28.30
2023-01-06T18:09:05.990Z,25.63
2023-01-06T18:11:35.716Z,26.20
2023-01-06T18:14:33.852Z,24.53
2023-01-06T18:17:16.297Z,25.10
2023-01-06T18:19:43.279Z,24.50
2023-01-06T18:22:23.575Z,26.47
2023-01-06T18:24:52.225Z,26.33
2023-01-06T18:27:34.641Z,26.07
2023-01-06T18:30:28.474Z,25.90
2023-01-06T18:32:55.577Z,26.07
2023-01-06T18:35:28.798Z,27.47
2023-01-06T18:38:00.262Z,25.57
2023-01-06T18:40:28.019Z,26.00
2023-01-06T18:42:56.284Z,26.43
2023-01-06T18:45:23.165Z,25.13
2023-01-06T18:48:05.947Z,25.33
2023-01-06T18:50:37.224Z,26.13
2023-01-06T18:53:10.180Z,24.13
2023-01-06T18:55:47.080Z,24.57
2023-01-06T18:58:32.500Z,26.20
2023-01-06T19:01:02.838Z,25.03
2023-01-06T19:03:42.778Z,25.63
2023-01-06T19:06:19.050Z,24.70
2023-01-06T19:08:49.858Z,23.93
2023-01-06T19:11:20.224Z,24.70
2023-01-06T19:13:47.866Z,27.37
2023-01-06T19:16:37.180Z,25.00
2023-01-06T19:19:10.907Z,23.60
2023-01-06T19:21:38.934Z,25.07
2023-01-06T19:24:27.872Z,23.23
2023-01-06T19:26:59.299Z,24.03
2023-01-06T19:29:30.922Z,23.90
2023-01-06T19:32:02.474Z,23.80
2023-01-06T19:34:31.615Z,25.70
2023-01-06T19:36:58.665Z,25.60
2023-01-06T19:39:38.112Z,25.40
2023-01-06T19:42:07.782Z,27.80
2023-01-06T19:44:38.576Z,26.50
2023-01-06T19:47:19.907Z,26.00
2023-01-06T19:49:52.973Z,25.47
2023-01-06T19:52:25.908Z,26.17
2023-01-06T19:54:53.384Z,27.97
2023-01-06T19:57:27.905Z,28.23
2023-01-06T19:59:59.458Z,28.70
2023-01-06T20:02:42.613Z,27.47
2023-01-06T20:05:09.642Z,29.40
2023-01-06T20:07:36.633Z,30.27
2023-01-06T20:10:03.721Z,29.03
2023-01-06T20:12:30.717Z,29.60
2023-01-06T20:14:57.695Z,30.43
2023-01-06T20:17:25.825Z,30.17
2023-01-06T20:19:52.777Z,30.57
2023-01-06T20:22:21.847Z,31.07
2023-01-06T20:24:48.827Z,30.27
2023-01-06T20:27:16.298Z,32.93
2023-01-06T20:29:43.280Z,29.03
2023-01-06T20:32:10.262Z,31.33
2023-01-06T20:34:37.260Z,31.70
2023-01-06T20:37:04.244Z,30.53
2023-01-06T20:39:32.879Z,32.13
2023-01-06T20:42:00.666Z,30.27
2023-01-06T20:44:27.639Z,30.27
2023-01-06T20:46:54.591Z,32.53
2023-01-06T20:49:21.658Z,33.40
2023-01-06T20:51:48.630Z,32.13
2023-01-06T20:54:15.715Z,32.67
2023-01-06T20:56:42.690Z,34.00
2023-01-06T20:59:09.768Z,30.77
2023-01-06T21:01:36.857Z,34.73
2023-01-06T21:04:04.032Z,32.93
2023-01-06T21:06:31.039Z,34.10
2023-01-06T21:08:57.976Z,33.10
2023-01-06T21:11:25.044Z,35.07
2023-01-06T21:13:52.013Z,34.07
2023-01-06T21:16:19.177Z,32.63
2023-01-06T21:18:46.229Z,32.57
2023-01-06T21:21:13.201Z,33.70
2023-01-06T21:23:40.808Z,33.23
2023-01-06T21:26:07.778Z,33.10
2023-01-06T21:28:34.793Z,35.20
2023-01-06T21:31:01.872Z,31.40
2023-01-06T21:33:28.926Z,33.03
2023-01-06T21:35:55.891Z,34.17
2023-01-06T21:38:22.862Z,32.40
2023-01-06T21:40:50.281Z,33.30
2023-01-06T21:43:17.410Z,32.57
2023-01-06T21:45:45.144Z,32.40
2023-01-06T21:48:13.044Z,32.13
2023-01-06T21:50:42.593Z,32.10
2023-01-06T21:53:11.047Z,32.10
2023-01-06T21:55:38.660Z,34.50
2023-01-06T21:58:05.885Z,31.63
2023-01-06T22:00:32.910Z,32.53
2023-01-06T22:02:59.969Z,33.57
2023-01-06T22:05:27.223Z,33.07
2023-01-06T22:07:54.344Z,30.67
2023-01-06T22:10:24.466Z,32.50
2023-01-06T22:12:53.364Z,33.23
2023-01-06T22:15:21.756Z,30.77
2023-01-06T22:17:49.741Z,31.73
2023-01-06T22:20:17.886Z,34.33
2023-01-06T22:22:46.074Z,32.33
2023-01-06T22:25:13.029Z,31.87
2023-01-06T22:27:40.007Z,33.20
2023-01-06T22:30:07.556Z,31.03
2023-01-06T22:32:43.529Z,33.50
2023-01-06T22:35:12.706Z,32.93
2023-01-06T22:37:39.917Z,32.33
2023-01-06T22:40:08.390Z,33.73
2023-01-06T22:42:35.416Z,32.33
2023-01-06T22:45:02.537Z,31.37
2023-01-06T22:47:29.516Z,31.03
2023-01-06T22:49:57.323Z,34.63
2023-01-06T22:52:24.658Z,34.43
2023-01-06T22:54:51.721Z,31.83
2023-01-06T22:57:18.702Z,32.50
2023-01-06T22:59:45.706Z,30.60
2023-01-06T23:02:13.896Z,32.77
2023-01-06T23:04:40.979Z,33.30
2023-01-06T23:07:07.991Z,32.97
2023-01-06T23:09:35.014Z,31.73
2023-01-06T23:12:02.043Z,31.87
2023-01-06T23:14:29.145Z,33.07
2023-01-06T23:16:56.123Z,31.67
2023-01-06T23:19:23.129Z,33.77
2023-01-06T23:21:50.174Z,32.87
2023-01-06T23:24:17.347Z,32.57
2023-01-06T23:26:46.151Z,33.33
2023-01-06T23:29:13.479Z,35.47
2023-01-06T23:31:43.081Z,34.63
2023-01-06T23:34:12.879Z,34.57
2023-01-06T23:36:40.665Z,32.10
2023-01-06T23:39:11.177Z,32.63
2023-01-06T23:41:38.813Z,32.57
2023-01-06T23:44:06.601Z,31.07
2023-01-06T23:46:37.439Z,32.70
2023-01-06T23:49:05.070Z,32.23
2023-01-06T23:51:32.775Z,32.43
2023-01-06T23:54:00.893Z,34.37
2023-01-06T23:56:31.431Z,34.10
2023-01-06T23:59:00.345Z,32.90
